Flight Track Log - Related Links

Times and Time Zones

All times are in EDT time to prevent confusion due to time zone crossing. See the PDT4157 flight status page for this flight to view local times or setup timezone preferences in your user account.

Time Position Orientation Groundspeed Altitude Reporting Facility
EDT Latitude Longitude Course Direction KTS MPH feet Rate Location/Type
Sun 11:29:04 AM 35.2011 -80.9353 160° South 125 144 1,300  Level Atlanta Center
Sun 11:29:46 AM 35.1800 -80.9208 151° Southeast 141 162 2,400 1,319 Climbing Atlanta Center
Sun 11:30:35 AM 35.1747 -80.8778 99° East 171 197 3,300 836 Climbing Atlanta Center
Sun 11:31:00 AM 34.9898 -80.8616 158° South  Level FlightAware Approximate
Sun 11:31:48 AM 35.1747 -80.7992 90° East 196 226 4,100  Level Atlanta Center
Sun 11:32:00 AM 34.9189 -80.8261 158° South  Level FlightAware Approximate
Sun 11:32:43 AM 35.1344 -80.7778 157° South 205 236 4,800  Level Atlanta Center
Sun 11:33:00 AM 34.8486 -80.7935 151° Southeast  Level FlightAware Approximate
Sun 11:33:50 AM 35.0747 -80.7978 195° South 181 208 6,100  Level Atlanta Center
Sun 11:34:00 AM 34.7777 -80.7586 160° South  Level FlightAware Approximate
Sun 11:34:51 AM 35.0247 -80.8100 191° South 180 207 7,300  Level Atlanta Center
Sun 11:35:52 AM 34.9747 -80.8144 184° South 182 209 8,300 934 Climbing Atlanta Center
Sun 11:36:53 AM 34.9250 -80.8189 184° South 181 208 9,200 879 Climbing Atlanta Center
Sun 11:37:48 AM 34.8767 -80.8106 172° South 189 217 10,000 879 Climbing Atlanta Center
Sun 11:38:49 AM 34.8261 -80.7900 162° South 195 224 10,900 824 Climbing Atlanta Center
Sun 11:40:21 AM 34.7447 -80.7578 162° South 199 229 12,100 750 Climbing Jacksonville Center
Sun 11:41:21 AM 34.6942 -80.7336 159° South 199 229 12,800 650 Climbing Jacksonville Center
Sun 11:42:21 AM 34.6417 -80.7122 161° South 204 235 13,400 600 Climbing Jacksonville Center
Sun 11:43:21 AM 34.5911 -80.6858 157° South 204 235 14,000 300 Climbing Jacksonville Center
Sun 11:44:21 AM 34.5347 -80.6772 173° South 204 235 14,000  Level Jacksonville Center
Sun 11:45:21 AM 34.4700 -80.6814 183° South 211 243 14,000  Level Jacksonville Center
Sun 11:46:21 AM 34.4053 -80.6806 179° South 228 262 14,000  Level Jacksonville Center
Sun 11:47:21 AM 34.3408 -80.6819 181° South 234 269 14,000 50 Level Jacksonville Center
Sun 11:48:21 AM 34.2739 -80.6814 180° South 234 269 14,100  Climbing Jacksonville Center
Sun 11:49:21 AM 34.2094 -80.6853 183° South 234 269 14,000 -50 Descending Jacksonville Center
Sun 11:50:21 AM 34.1447 -80.6844 179° South 234 269 14,000  Level Jacksonville Center
Sun 11:51:21 AM 34.0758 -80.6839 180° South 234 269 14,000 50 Level Jacksonville Center
Sun 11:52:21 AM 34.0111 -80.6806 178° South 234 269 14,100 -250 Climbing Jacksonville Center
Sun 11:53:21 AM 33.9403 -80.6822 181° South 240 276 13,500 -750 Descending Jacksonville Center
Sun 11:54:21 AM 33.8672 -80.6842 181° South 254 292 12,600 -750 Descending Jacksonville Center
Sun 11:55:21 AM 33.7942 -80.6883 183° South 264 304 12,000 -300 Descending Jacksonville Center
Sun 11:56:21 AM 33.7192 -80.6928 183° South 269 310 12,000  Level Jacksonville Center
Sun 11:57:21 AM 33.6522 -80.6894 178° South 269 310 12,000 50 Level Jacksonville Center
Sun 11:58:21 AM 33.5856 -80.6911 181° South 257 296 12,100  Climbing Jacksonville Center
Sun 11:59:21 AM 33.5189 -80.6928 181° South 250 288 12,000 -50 Descending Jacksonville Center
Sun 12:00:21 PM 33.4500 -80.6944 181° South 250 288 12,000  Level Jacksonville Center
Sun 12:01:21 PM 33.3853 -80.6961 181° South 245 282 12,000  Level Jacksonville Center
Sun 12:02:21 PM 33.3206 -80.6928 178° South 240 276 12,000  Level Jacksonville Center
Sun 12:03:21 PM 33.2558 -80.6917 179° South 240 276 12,000  Level Jacksonville Center
Sun 12:04:21 PM 33.1889 -80.6883 178° South 235 270 12,000  Level Jacksonville Center
Sun 12:05:21 PM 33.1242 -80.6825 176° South 235 270 12,000  Level Jacksonville Center
Sun 12:06:21 PM 33.0594 -80.6842 181° South 235 270 12,000  Level Jacksonville Center
Sun 12:07:21 PM 32.9947 -80.6833 179° South 235 270 12,000 -150 Level Jacksonville Center
Sun 12:08:21 PM 32.9303 -80.6900 185° South 235 270 11,700 -500 Descending Jacksonville Center
Sun 12:09:21 PM 32.8614 -80.6942 183° South 235 270 11,000 -350 Descending Jacksonville Center
Sun 12:10:21 PM 32.7947 -80.6956 181° South 241 277 11,000  Level Jacksonville Center
Sun 12:11:21 PM 32.7300 -80.6972 181° South 236 272 11,000 -550 Level Jacksonville Center
Sun 12:12:21 PM 32.6694 -80.6986 181° South 236 272 9,900 -1,388 Descending Jacksonville Center
Sun 12:13:22 PM 32.5881 -80.6958 178° South 258 297 8,200 -1,750 Descending Jacksonville Center
Sun 12:14:21 PM 32.5192 -80.7000 183° South 259 298 6,400 -1,815 Descending Jacksonville Center
Sun 12:15:21 PM 32.4481 -80.6942 176° South 269 310 4,600 -1,950 Descending Jacksonville Center
Sun 12:16:21 PM 32.3731 -80.6961 181° South 262 302 2,500 -1,500 Descending Jacksonville Center
Sun 12:17:21 PM 32.3142 -80.6703 160° South 237 273 1,600 -750 Descending Jacksonville Center
Sun 12:18:21 PM 32.2786 -80.6714 182° South 148 170 1,000 -600 Descending Jacksonville Center

Login

Don't have an account? Register now (free) for customized features, flight alerts, and more!